createdAt,value
2023-04-23T00:04:01.701Z,26.37
2023-04-23T00:09:04.660Z,28.60
2023-04-23T00:14:07.504Z,27.37
2023-04-23T00:19:11.066Z,28.77
2023-04-23T00:24:13.429Z,23.40
2023-04-23T00:29:15.807Z,28.50
2023-04-23T00:34:18.096Z,27.63
2023-04-23T00:39:20.588Z,29.83
2023-04-23T00:44:22.984Z,26.93
2023-04-23T00:49:25.741Z,21.30
2023-04-23T00:54:28.553Z,25.93
2023-04-23T00:59:32.357Z,26.23
2023-04-23T01:04:35.963Z,21.23
2023-04-23T01:09:38.374Z,28.87
2023-04-23T01:14:42.094Z,24.63
2023-04-23T01:19:44.768Z,28.97
2023-04-23T01:24:47.797Z,22.37
2023-04-23T01:29:50.262Z,28.37
2023-04-23T01:34:54.824Z,23.13
2023-04-23T01:39:57.336Z,29.63
2023-04-23T01:44:59.744Z,38.33
2023-04-23T01:50:02.148Z,28.87
2023-04-23T01:55:06.401Z,31.77
2023-04-23T02:00:11.631Z,28.50
2023-04-23T02:05:18.931Z,34.83
2023-04-23T02:10:21.587Z,27.43
2023-04-23T02:15:25.724Z,28.97
2023-04-23T02:20:28.875Z,29.60
2023-04-23T02:25:32.548Z,24.73
2023-04-23T02:30:35.926Z,29.40
2023-04-23T02:35:41.229Z,34.77
2023-04-23T02:40:44.145Z,32.27
2023-04-23T02:45:46.567Z,29.00
2023-04-23T02:50:49.374Z,29.33
2023-04-23T02:55:51.761Z,30.60
2023-04-23T03:00:54.635Z,31.53
2023-04-23T03:05:57.180Z,33.53
2023-04-23T03:10:59.645Z,25.07
2023-04-23T03:16:02.078Z,27.27
2023-04-23T03:21:04.590Z,37.20
2023-04-23T03:26:07.268Z,38.50
2023-04-23T03:31:09.765Z,24.70
2023-04-23T03:36:12.291Z,25.30
2023-04-23T03:41:14.690Z,23.33
2023-04-23T03:46:17.341Z,21.03
2023-04-23T03:51:20.994Z,26.57
2023-04-23T03:56:26.941Z,24.60
2023-04-23T04:02:08.191Z,26.13
2023-04-23T04:07:12.389Z,24.67
2023-04-23T04:12:14.743Z,17.97
2023-04-23T04:17:18.627Z,18.27
2023-04-23T04:22:21.056Z,16.97
2023-04-23T04:27:23.438Z,20.87
2023-04-23T04:32:25.849Z,24.73
2023-04-23T04:37:28.450Z,21.27
2023-04-23T04:42:31.410Z,20.23
2023-04-23T04:47:33.917Z,22.43
2023-04-23T04:52:36.862Z,17.23
2023-04-23T04:57:39.225Z,14.60
2023-04-23T05:02:41.724Z,19.10
2023-04-23T05:07:44.137Z,16.87
2023-04-23T05:12:47.025Z,17.90
2023-04-23T05:17:53.758Z,15.17
2023-04-23T05:22:56.472Z,20.30
2023-04-23T05:27:59.017Z,17.23
2023-04-23T05:33:01.405Z,21.13
2023-04-23T05:38:05.311Z,19.07
2023-04-23T05:43:07.950Z,13.93
2023-04-23T05:48:10.395Z,16.77
2023-04-23T05:53:13.064Z,17.90
2023-04-23T05:58:16.068Z,19.97
2023-04-23T06:03:18.745Z,16.63
2023-04-23T06:08:21.963Z,16.47
2023-04-23T06:13:26.048Z,16.10
2023-04-23T06:18:28.625Z,17.80
2023-04-23T06:23:31.650Z,16.23
2023-04-23T06:28:34.115Z,14.77
2023-04-23T06:33:59.709Z,14.33
2023-04-23T06:39:02.136Z,17.63
2023-04-23T06:44:04.631Z,13.00
2023-04-23T06:49:11.340Z,13.80
2023-04-23T06:54:13.627Z,11.77
2023-04-23T06:59:15.998Z,11.30
2023-04-23T07:04:22.325Z,10.80
2023-04-23T07:09:25.008Z,8.37
2023-04-23T07:14:27.429Z,7.47
2023-04-23T07:19:29.824Z,7.53
2023-04-23T07:24:32.183Z,7.83
2023-04-23T07:29:34.522Z,9.03
2023-04-23T07:34:38.069Z,7.20
2023-04-23T07:39:43.816Z,6.70
2023-04-23T07:44:49.461Z,1.65
2023-04-23T07:49:51.799Z,2.67
2023-04-23T07:54:54.344Z,1.33
2023-04-23T07:59:56.772Z,1.60
2023-04-23T08:04:59.275Z,3.20
2023-04-23T08:10:05.462Z,3.13
2023-04-23T08:15:08.646Z,3.60
2023-04-23T08:20:15.634Z,5.60
2023-04-23T08:25:18.044Z,3.27
2023-04-23T08:30:20.516Z,11.10
2023-04-23T08:35:23.847Z,3.10
2023-04-23T08:40:27.002Z,7.20
2023-04-23T08:45:30.522Z,2.03
2023-04-23T08:50:34.004Z,4.87
2023-04-23T08:55:37.028Z,4.17
2023-04-23T09:00:40.142Z,6.70
2023-04-23T09:05:42.796Z,2.03
2023-04-23T09:10:45.355Z,2.73
2023-04-23T09:15:47.822Z,3.33
2023-04-23T09:20:50.634Z,3.33
2023-04-23T09:25:53.080Z,2.77
2023-04-23T09:30:55.688Z,2.83
2023-04-23T09:35:58.122Z,1.60
2023-04-23T09:41:01.515Z,4.97
2023-04-23T09:46:03.956Z,2.83
2023-04-23T09:51:06.414Z,3.00
2023-04-23T09:56:11.962Z,1.53
2023-04-23T10:01:15.671Z,2.20
2023-04-23T10:06:36.863Z,2.93
2023-04-23T10:11:42.352Z,2.27
2023-04-23T10:16:49.263Z,1.60
2023-04-23T10:22:18.649Z,4.23
2023-04-23T10:27:33.474Z,3.00
2023-04-23T10:32:46.070Z,2.83
2023-04-23T10:37:48.942Z,2.80
2023-04-23T10:42:51.824Z,2.13
2023-04-23T10:47:57.502Z,3.00
2023-04-23T10:53:00.034Z,4.17
2023-04-23T10:58:05.061Z,2.03
2023-04-23T11:03:43.084Z,3.07
2023-04-23T11:08:54.651Z,4.30
2023-04-23T11:14:00.915Z,4.10
2023-04-23T11:19:05.454Z,4.67
2023-04-23T11:24:08.308Z,2.10
2023-04-23T11:29:14.606Z,3.67
2023-04-23T11:34:17.965Z,2.13
2023-04-23T11:39:21.662Z,2.07
2023-04-23T11:44:24.057Z,5.27
2023-04-23T11:49:26.533Z,3.97
2023-04-23T11:54:29.951Z,5.63
2023-04-23T11:59:32.327Z,4.37
2023-04-23T12:04:34.787Z,3.77
2023-04-23T12:09:38.749Z,3.37
2023-04-23T12:14:41.183Z,5.57
2023-04-23T12:19:45.268Z,2.73
2023-04-23T12:24:55.295Z,3.83
2023-04-23T12:30:01.585Z,3.70
2023-04-23T12:35:07.085Z,5.30
2023-04-23T12:40:10.523Z,3.77
2023-04-23T12:45:13.327Z,4.43
2023-04-23T12:50:15.961Z,3.60
2023-04-23T12:55:18.475Z,2.73
2023-04-23T13:00:21.125Z,2.37
2023-04-23T13:05:24.098Z,5.50
2023-04-23T13:10:26.662Z,4.17
2023-04-23T13:15:29.068Z,3.90
2023-04-23T13:20:31.607Z,4.63
2023-04-23T13:25:33.986Z,3.33
2023-04-23T13:30:36.340Z,3.83
2023-04-23T13:35:38.949Z,2.70
2023-04-23T13:40:42.295Z,3.60
2023-04-23T13:45:44.911Z,4.43
2023-04-23T13:50:47.424Z,3.63
2023-04-23T13:55:49.746Z,2.63
2023-04-23T14:00:53.233Z,3.97
2023-04-23T14:05:55.811Z,2.07
2023-04-23T14:10:58.235Z,5.13
2023-04-23T14:16:03.426Z,2.20
2023-04-23T14:21:07.117Z,2.40
2023-04-23T14:26:11.116Z,4.33
2023-04-23T14:31:13.675Z,3.87
2023-04-23T14:36:16.182Z,5.60
2023-04-23T14:41:18.578Z,4.43
2023-04-23T14:46:21.085Z,5.07
2023-04-23T14:51:23.983Z,2.90
2023-04-23T14:56:27.503Z,3.13
2023-04-23T15:01:30.791Z,4.73
2023-04-23T15:06:33.290Z,4.30
2023-04-23T15:11:35.849Z,3.00
2023-04-23T15:21:43.600Z,3.80
2023-04-23T15:26:46.964Z,4.73
2023-04-23T15:31:49.853Z,5.30
2023-04-23T15:36:52.181Z,4.07
2023-04-23T15:41:54.624Z,5.77
2023-04-23T15:46:57.040Z,15.43
2023-04-23T15:51:59.657Z,8.73
2023-04-23T15:57:03.080Z,3.20
2023-04-23T16:02:05.740Z,8.67
2023-04-23T16:07:08.357Z,7.70
2023-04-23T16:12:10.840Z,7.70
2023-04-23T16:17:13.392Z,25.87
2023-04-23T16:22:16.692Z,12.53
2023-04-23T16:27:19.073Z,8.30
2023-04-23T16:32:21.673Z,7.63
2023-04-23T16:37:24.066Z,8.60
2023-04-23T16:42:27.164Z,8.37
2023-04-23T16:47:31.464Z,5.90
2023-04-23T16:52:34.082Z,16.03
2023-04-23T16:57:37.225Z,39.23
2023-04-23T17:02:41.720Z,48.40
2023-04-23T17:07:44.445Z,39.90
2023-04-23T17:12:47.010Z,30.50
2023-04-23T17:17:49.920Z,26.83
2023-04-23T17:22:52.372Z,25.57
2023-04-23T17:27:54.994Z,34.03
2023-04-23T17:32:57.395Z,19.50
2023-04-23T17:37:59.743Z,21.43
2023-04-23T17:43:02.220Z,27.97
2023-04-23T17:48:05.621Z,30.17
2023-04-23T17:53:08.427Z,36.87
2023-04-23T17:58:10.869Z,22.43
2023-04-23T18:03:16.998Z,22.27
2023-04-23T18:08:21.750Z,23.40
2023-04-23T18:13:24.247Z,29.87
2023-04-23T18:18:26.723Z,33.63
2023-04-23T18:23:29.883Z,33.67
2023-04-23T18:28:37.750Z,34.60
2023-04-23T18:33:49.941Z,30.90
2023-04-23T18:38:54.538Z,26.10
2023-04-23T18:43:57.517Z,34.70
2023-04-23T18:49:38.841Z,28.97
2023-04-23T18:54:45.104Z,23.63
2023-04-23T18:59:49.046Z,24.57
2023-04-23T19:04:51.745Z,22.83
2023-04-23T19:09:54.199Z,23.83
2023-04-23T19:14:56.566Z,20.33
2023-04-23T19:19:58.962Z,20.33
2023-04-23T19:25:01.460Z,18.90
2023-04-23T19:30:07.693Z,19.27
2023-04-23T19:35:13.136Z,31.00
2023-04-23T19:40:15.661Z,14.70
2023-04-23T19:45:18.824Z,18.40
2023-04-23T19:50:21.460Z,17.13
2023-04-23T19:55:27.411Z,18.73
2023-04-23T20:00:31.002Z,33.23
2023-04-23T20:05:33.733Z,32.20
2023-04-23T20:10:36.175Z,25.23
2023-04-23T20:15:38.802Z,26.10
2023-04-23T20:20:42.349Z,15.50
2023-04-23T20:25:44.746Z,17.30
2023-04-23T20:30:49.597Z,14.33
2023-04-23T20:35:51.913Z,16.87
2023-04-23T20:40:54.392Z,20.90
2023-04-23T20:45:57.091Z,14.83
2023-04-23T20:50:59.889Z,16.53
2023-04-23T20:56:02.236Z,21.00
2023-04-23T21:01:06.818Z,19.70
2023-04-23T21:06:10.963Z,19.20
2023-04-23T21:11:18.015Z,18.63
2023-04-23T21:16:20.535Z,21.13
2023-04-23T21:21:27.394Z,22.00
2023-04-23T21:26:30.988Z,29.67
2023-04-23T21:31:47.024Z,27.93
2023-04-23T21:36:50.130Z,35.17
2023-04-23T21:41:52.583Z,26.10
2023-04-23T21:46:55.028Z,25.23
2023-04-23T21:51:57.622Z,20.97
2023-04-23T21:57:00.131Z,19.77
2023-04-23T22:02:02.567Z,23.73
2023-04-23T22:07:06.141Z,26.43
2023-04-23T22:12:09.164Z,18.53
2023-04-23T22:17:12.090Z,26.77
2023-04-23T22:22:14.424Z,22.10
2023-04-23T22:27:16.818Z,29.47
2023-04-23T22:32:19.180Z,25.47
2023-04-23T22:37:21.790Z,25.70
2023-04-23T22:42:24.540Z,19.37
2023-04-23T22:47:27.463Z,30.50
2023-04-23T22:52:30.233Z,28.47
2023-04-23T22:57:32.643Z,24.87
2023-04-23T23:02:35.140Z,28.70
2023-04-23T23:07:37.587Z,20.23
2023-04-23T23:12:39.877Z,18.63
2023-04-23T23:17:42.569Z,24.03
2023-04-23T23:22:44.961Z,15.93
2023-04-23T23:27:47.297Z,21.93
2023-04-23T23:32:49.714Z,16.27
2023-04-23T23:37:52.139Z,22.90
2023-04-23T23:42:54.468Z,20.97
2023-04-23T23:47:56.960Z,22.13
2023-04-23T23:52:59.285Z,22.97
2023-04-23T23:58:02.014Z,20.83
